sensor_id;sensor_type;location;lat;lon;timestamp;pressure;altitude;pressure_sealevel;temperature;humidity
34482;BME280;20720;48.886;9.388;2022-08-25T00:01:48;98362.94;;;20.53;100.00
34482;BME280;20720;48.886;9.388;2022-08-25T00:04:14;98366.13;;;20.50;100.00
34482;BME280;20720;48.886;9.388;2022-08-25T00:06:40;98361.06;;;20.53;100.00
34482;BME280;20720;48.886;9.388;2022-08-25T00:09:07;98356.47;;;20.34;100.00
34482;BME280;20720;48.886;9.388;2022-08-25T00:11:33;98353.75;;;20.29;100.00
34482;BME280;20720;48.886;9.388;2022-08-25T00:14:00;98339.25;;;20.10;100.00
34482;BME280;20720;48.886;9.388;2022-08-25T00:16:26;98335.53;;;20.16;100.00
34482;BME280;20720;48.886;9.388;2022-08-25T00:18:53;98331.28;;;20.15;100.00
34482;BME280;20720;48.886;9.388;2022-08-25T00:21:19;98328.06;;;20.13;100.00
34482;BME280;20720;48.886;9.388;2022-08-25T00:23:45;98336.59;;;20.15;100.00
34482;BME280;20720;48.886;9.388;2022-08-25T00:26:10;98333.44;;;20.18;100.00
34482;BME280;20720;48.886;9.388;2022-08-25T00:28:36;98333.88;;;20.00;100.00
34482;BME280;20720;48.886;9.388;2022-08-25T00:31:01;98329.19;;;20.22;100.00
34482;BME280;20720;48.886;9.388;2022-08-25T00:33:27;98332.69;;;20.27;100.00
34482;BME280;20720;48.886;9.388;2022-08-25T00:35:55;98330.25;;;20.21;100.00
34482;BME280;20720;48.886;9.388;2022-08-25T00:38:20;98327.53;;;20.16;100.00
34482;BME280;20720;48.886;9.388;2022-08-25T00:40:45;98331.78;;;20.12;100.00
34482;BME280;20720;48.886;9.388;2022-08-25T00:43:31;98329.78;;;20.34;100.00
34482;BME280;20720;48.886;9.388;2022-08-25T00:45:56;98337.88;;;20.59;100.00
34482;BME280;20720;48.886;9.388;2022-08-25T00:48:22;98339.97;;;20.47;100.00
34482;BME280;20720;48.886;9.388;2022-08-25T00:50:47;98353.94;;;20.79;100.00
34482;BME280;20720;48.886;9.388;2022-08-25T00:53:12;98350.72;;;20.77;100.00
34482;BME280;20720;48.886;9.388;2022-08-25T00:55:37;98351.22;;;20.59;100.00
34482;BME280;20720;48.886;9.388;2022-08-25T00:58:05;98347.47;;;20.55;100.00
34482;BME280;20720;48.886;9.388;2022-08-25T01:00:34;98346.44;;;20.71;100.00
34482;BME280;20720;48.886;9.388;2022-08-25T01:03:00;98338.16;;;20.73;100.00
34482;BME280;20720;48.886;9.388;2022-08-25T01:05:25;98344.31;;;20.68;100.00
34482;BME280;20720;48.886;9.388;2022-08-25T01:07:51;98338.66;;;20.59;100.00
34482;BME280;20720;48.886;9.388;2022-08-25T01:10:17;98332.47;;;20.39;100.00
34482;BME280;20720;48.886;9.388;2022-08-25T01:12:43;98327.13;;;20.39;100.00
34482;BME280;20720;48.886;9.388;2022-08-25T01:15:09;98325.00;;;20.41;100.00
34482;BME280;20720;48.886;9.388;2022-08-25T01:17:44;98316.94;;;20.26;100.00
34482;BME280;20720;48.886;9.388;2022-08-25T01:20:09;98318.28;;;20.33;100.00
34482;BME280;20720;48.886;9.388;2022-08-25T01:22:35;98321.47;;;20.25;100.00
34482;BME280;20720;48.886;9.388;2022-08-25T01:25:03;98314.75;;;20.18;100.00
34482;BME280;20720;48.886;9.388;2022-08-25T01:27:29;98302.25;;;19.77;100.00
34482;BME280;20720;48.886;9.388;2022-08-25T01:29:54;98301.06;;;20.04;100.00
34482;BME280;20720;48.886;9.388;2022-08-25T01:32:19;98303.22;;;20.12;100.00
34482;BME280;20720;48.886;9.388;2022-08-25T01:34:45;98293.31;;;19.98;100.00
34482;BME280;20720;48.886;9.388;2022-08-25T01:37:11;98297.56;;;19.99;100.00
34482;BME280;20720;48.886;9.388;2022-08-25T01:39:36;98301.31;;;20.03;100.00
34482;BME280;20720;48.886;9.388;2022-08-25T01:44:26;98297.53;;;19.89;100.00
34482;BME280;20720;48.886;9.388;2022-08-25T01:46:52;98298.59;;;19.88;100.00
34482;BME280;20720;48.886;9.388;2022-08-25T01:49:18;98296.44;;;19.85;100.00
34482;BME280;20720;48.886;9.388;2022-08-25T01:51:46;98291.06;;;19.80;100.00
34482;BME280;20720;48.886;9.388;2022-08-25T01:54:11;98286.25;;;19.72;100.00
34482;BME280;20720;48.886;9.388;2022-08-25T01:56:36;98280.31;;;19.59;100.00
34482;BME280;20720;48.886;9.388;2022-08-25T01:59:02;98279.09;;;19.82;100.00
34482;BME280;20720;48.886;9.388;2022-08-25T02:01:28;98278.25;;;19.72;100.00
34482;BME280;20720;48.886;9.388;2022-08-25T02:03:55;98282.78;;;19.71;100.00
34482;BME280;20720;48.886;9.388;2022-08-25T02:06:28;98277.13;;;19.62;100.00
34482;BME280;20720;48.886;9.388;2022-08-25T02:08:57;98274.00;;;19.76;100.00
34482;BME280;20720;48.886;9.388;2022-08-25T02:11:22;98283.88;;;19.80;100.00
34482;BME280;20720;48.886;9.388;2022-08-25T02:13:48;98276.63;;;19.70;100.00
34482;BME280;20720;48.886;9.388;2022-08-25T02:16:15;98279.00;;;19.62;100.00
34482;BME280;20720;48.886;9.388;2022-08-25T02:18:40;98274.41;;;19.52;100.00
34482;BME280;20720;48.886;9.388;2022-08-25T02:21:06;98275.94;;;19.43;100.00
34482;BME280;20720;48.886;9.388;2022-08-25T02:23:31;98269.56;;;19.49;100.00
34482;BME280;20720;48.886;9.388;2022-08-25T02:25:56;98272.75;;;19.41;100.00
34482;BME280;20720;48.886;9.388;2022-08-25T02:28:22;98270.91;;;19.47;100.00
34482;BME280;20720;48.886;9.388;2022-08-25T02:30:47;98278.63;;;19.43;100.00
34482;BME280;20720;48.886;9.388;2022-08-25T02:33:12;98276.72;;;19.44;100.00
34482;BME280;20720;48.886;9.388;2022-08-25T02:35:37;98272.53;;;19.21;100.00
34482;BME280;20720;48.886;9.388;2022-08-25T02:38:03;98268.03;;;19.22;100.00
34482;BME280;20720;48.886;9.388;2022-08-25T02:40:28;98263.09;;;19.04;100.00
34482;BME280;20720;48.886;9.388;2022-08-25T02:42:53;98259.28;;;18.95;100.00
34482;BME280;20720;48.886;9.388;2022-08-25T02:45:19;98253.22;;;18.99;100.00
34482;BME280;20720;48.886;9.388;2022-08-25T02:47:45;98250.00;;;18.97;100.00
34482;BME280;20720;48.886;9.388;2022-08-25T02:50:10;98245.69;;;18.91;100.00
34482;BME280;20720;48.886;9.388;2022-08-25T02:52:35;98239.13;;;19.04;100.00
34482;BME280;20720;48.886;9.388;2022-08-25T02:55:01;98243.66;;;19.03;100.00
34482;BME280;20720;48.886;9.388;2022-08-25T02:57:29;98241.00;;;19.03;100.00
34482;BME280;20720;48.886;9.388;2022-08-25T02:59:54;98239.59;;;18.96;100.00
34482;BME280;20720;48.886;9.388;2022-08-25T03:02:19;98236.13;;;18.95;100.00
34482;BME280;20720;48.886;9.388;2022-08-25T03:04:44;98238.31;;;18.98;100.00
34482;BME280;20720;48.886;9.388;2022-08-25T03:07:10;98231.88;;;18.94;100.00
34482;BME280;20720;48.886;9.388;2022-08-25T03:09:36;98231.91;;;18.99;100.00
34482;BME280;20720;48.886;9.388;2022-08-25T03:12:02;98235.09;;;18.96;100.00
34482;BME280;20720;48.886;9.388;2022-08-25T03:14:27;98231.66;;;19.01;100.00
34482;BME280;20720;48.886;9.388;2022-08-25T03:16:52;98235.63;;;18.98;100.00
34482;BME280;20720;48.886;9.388;2022-08-25T03:19:17;98235.09;;;18.96;100.00
34482;BME280;20720;48.886;9.388;2022-08-25T03:21:42;98232.66;;;18.95;100.00
34482;BME280;20720;48.886;9.388;2022-08-25T03:24:09;98230.09;;;18.73;100.00
34482;BME280;20720;48.886;9.388;2022-08-25T03:26:35;98235.69;;;18.71;100.00
34482;BME280;20720;48.886;9.388;2022-08-25T03:29:23;98227.94;;;18.70;100.00
34482;BME280;20720;48.886;9.388;2022-08-25T03:31:49;98234.66;;;18.77;100.00
34482;BME280;20720;48.886;9.388;2022-08-25T03:34:14;98244.50;;;18.77;100.00
34482;BME280;20720;48.886;9.388;2022-08-25T03:36:43;98237.00;;;18.74;100.00
34482;BME280;20720;48.886;9.388;2022-08-25T03:39:09;98243.13;;;18.69;100.00
34482;BME280;20720;48.886;9.388;2022-08-25T03:41:34;98251.84;;;18.65;100.00
34482;BME280;20720;48.886;9.388;2022-08-25T03:44:00;98249.94;;;18.60;100.00
34482;BME280;20720;48.886;9.388;2022-08-25T03:46:30;98255.44;;;18.49;100.00
34482;BME280;20720;48.886;9.388;2022-08-25T03:48:56;98259.88;;;18.43;100.00
34482;BME280;20720;48.886;9.388;2022-08-25T03:51:22;98249.50;;;18.20;100.00
34482;BME280;20720;48.886;9.388;2022-08-25T03:53:48;98253.13;;;18.36;100.00
34482;BME280;20720;48.886;9.388;2022-08-25T03:56:13;98253.06;;;18.31;100.00
34482;BME280;20720;48.886;9.388;2022-08-25T03:58:38;98252.03;;;18.32;100.00
34482;BME280;20720;48.886;9.388;2022-08-25T04:01:04;98241.28;;;18.22;100.00
34482;BME280;20720;48.886;9.388;2022-08-25T04:03:29;98243.63;;;17.97;100.00
34482;BME280;20720;48.886;9.388;2022-08-25T04:05:54;98238.91;;;17.77;100.00
34482;BME280;20720;48.886;9.388;2022-08-25T04:08:19;98249.47;;;17.94;100.00
34482;BME280;20720;48.886;9.388;2022-08-25T04:10:46;98242.25;;;18.16;100.00
34482;BME280;20720;48.886;9.388;2022-08-25T04:13:12;98235.75;;;18.28;100.00
34482;BME280;20720;48.886;9.388;2022-08-25T04:15:40;98234.28;;;18.16;100.00
34482;BME280;20720;48.886;9.388;2022-08-25T04:18:06;98234.75;;;18.34;100.00
34482;BME280;20720;48.886;9.388;2022-08-25T04:20:31;98232.94;;;18.40;100.00
34482;BME280;20720;48.886;9.388;2022-08-25T04:22:56;98229.50;;;18.39;100.00
34482;BME280;20720;48.886;9.388;2022-08-25T04:25:24;98232.94;;;18.40;100.00
34482;BME280;20720;48.886;9.388;2022-08-25T04:27:49;98237.16;;;18.36;100.00
34482;BME280;20720;48.886;9.388;2022-08-25T04:30:15;98238.72;;;18.32;100.00
34482;BME280;20720;48.886;9.388;2022-08-25T04:32:40;98245.75;;;18.16;100.00
34482;BME280;20720;48.886;9.388;2022-08-25T04:35:05;98250.56;;;17.98;100.00
34482;BME280;20720;48.886;9.388;2022-08-25T04:37:31;98246.03;;;18.20;100.00
34482;BME280;20720;48.886;9.388;2022-08-25T04:39:57;98248.69;;;18.20;100.00
34482;BME280;20720;48.886;9.388;2022-08-25T04:42:22;98248.81;;;17.65;100.00
34482;BME280;20720;48.886;9.388;2022-08-25T04:44:47;98255.50;;;17.67;100.00
34482;BME280;20720;48.886;9.388;2022-08-25T04:47:13;98245.25;;;17.98;100.00
34482;BME280;20720;48.886;9.388;2022-08-25T04:49:39;98237.84;;;18.26;100.00
34482;BME280;20720;48.886;9.388;2022-08-25T04:52:04;98242.72;;;18.34;100.00
34482;BME280;20720;48.886;9.388;2022-08-25T04:54:29;98251.66;;;18.45;100.00
34482;BME280;20720;48.886;9.388;2022-08-25T04:56:54;98250.34;;;18.47;100.00
34482;BME280;20720;48.886;9.388;2022-08-25T04:59:19;98254.94;;;18.57;100.00
34482;BME280;20720;48.886;9.388;2022-08-25T05:01:45;98260.88;;;18.37;100.00
34482;BME280;20720;48.886;9.388;2022-08-25T05:04:11;98253.91;;;18.58;100.00
34482;BME280;20720;48.886;9.388;2022-08-25T05:06:38;98257.31;;;18.53;100.00
34482;BME280;20720;48.886;9.388;2022-08-25T05:09:03;98258.78;;;18.66;100.00
34482;BME280;20720;48.886;9.388;2022-08-25T05:11:29;98273.19;;;18.70;100.00
34482;BME280;20720;48.886;9.388;2022-08-25T05:13:54;98273.41;;;18.95;100.00
34482;BME280;20720;48.886;9.388;2022-08-25T05:16:20;98273.63;;;18.89;100.00
34482;BME280;20720;48.886;9.388;2022-08-25T05:18:47;98278.25;;;18.98;100.00
34482;BME280;20720;48.886;9.388;2022-08-25T05:21:13;98264.53;;;19.16;100.00
34482;BME280;20720;48.886;9.388;2022-08-25T05:23:39;98270.72;;;19.27;100.00
34482;BME280;20720;48.886;9.388;2022-08-25T05:26:06;98274.94;;;19.23;100.00
34482;BME280;20720;48.886;9.388;2022-08-25T05:28:32;98271.44;;;19.17;100.00
34482;BME280;20720;48.886;9.388;2022-08-25T05:30:57;98266.91;;;19.49;100.00
34482;BME280;20720;48.886;9.388;2022-08-25T05:33:23;98274.50;;;19.73;100.00
34482;BME280;20720;48.886;9.388;2022-08-25T05:35:49;98267.00;;;19.64;100.00
34482;BME280;20720;48.886;9.388;2022-08-25T05:38:14;98281.31;;;20.00;100.00
34482;BME280;20720;48.886;9.388;2022-08-25T05:40:39;98294.19;;;20.13;100.00
34482;BME280;20720;48.886;9.388;2022-08-25T05:43:04;98314.25;;;20.21;100.00
34482;BME280;20720;48.886;9.388;2022-08-25T05:45:29;98310.34;;;20.48;100.00
34482;BME280;20720;48.886;9.388;2022-08-25T05:47:55;98313.84;;;20.64;100.00
34482;BME280;20720;48.886;9.388;2022-08-25T05:50:21;98311.72;;;20.71;100.00
34482;BME280;20720;48.886;9.388;2022-08-25T05:52:46;98311.22;;;20.79;100.00
34482;BME280;20720;48.886;9.388;2022-08-25T05:55:12;98302.72;;;21.07;100.00
34482;BME280;20720;48.886;9.388;2022-08-25T05:57:37;98303.25;;;21.09;100.00
34482;BME280;20720;48.886;9.388;2022-08-25T06:00:06;98305.91;;;21.14;100.00
34482;BME280;20720;48.886;9.388;2022-08-25T06:02:31;98302.97;;;21.41;100.00
34482;BME280;20720;48.886;9.388;2022-08-25T06:05:07;98296.25;;;21.64;100.00
34482;BME280;20720;48.886;9.388;2022-08-25T06:07:33;98289.84;;;21.60;100.00
34482;BME280;20720;48.886;9.388;2022-08-25T06:10:00;98289.25;;;21.93;100.00
34482;BME280;20720;48.886;9.388;2022-08-25T06:12:25;98291.84;;;22.18;100.00
34482;BME280;20720;48.886;9.388;2022-08-25T06:14:50;98292.06;;;22.26;100.00
34482;BME280;20720;48.886;9.388;2022-08-25T06:17:15;98295.44;;;22.47;100.00
34482;BME280;20720;48.886;9.388;2022-08-25T06:19:41;98297.06;;;22.48;100.00
34482;BME280;20720;48.886;9.388;2022-08-25T06:22:06;98298.91;;;21.89;100.00
34482;BME280;20720;48.886;9.388;2022-08-25T06:24:31;98283.91;;;22.57;100.00
34482;BME280;20720;48.886;9.388;2022-08-25T06:26:57;98283.47;;;22.83;100.00
34482;BME280;20720;48.886;9.388;2022-08-25T06:29:23;98286.50;;;23.05;100.00
34482;BME280;20720;48.886;9.388;2022-08-25T06:31:48;98299.25;;;23.23;100.00
34482;BME280;20720;48.886;9.388;2022-08-25T06:34:14;98302.34;;;23.69;100.00
34482;BME280;20720;48.886;9.388;2022-08-25T06:36:39;98309.72;;;23.54;100.00
34482;BME280;20720;48.886;9.388;2022-08-25T06:39:05;98307.53;;;24.13;100.00
34482;BME280;20720;48.886;9.388;2022-08-25T06:41:30;98316.13;;;24.34;100.00
34482;BME280;20720;48.886;9.388;2022-08-25T06:43:56;98325.75;;;24.58;100.00
34482;BME280;20720;48.886;9.388;2022-08-25T06:46:22;98333.22;;;24.61;100.00
34482;BME280;20720;48.886;9.388;2022-08-25T06:48:48;98334.03;;;24.62;100.00
34482;BME280;20720;48.886;9.388;2022-08-25T06:51:14;98338.28;;;24.86;100.00
34482;BME280;20720;48.886;9.388;2022-08-25T06:53:40;98343.13;;;25.22;100.00
34482;BME280;20720;48.886;9.388;2022-08-25T06:56:06;98337.75;;;25.03;100.00
34482;BME280;20720;48.886;9.388;2022-08-25T06:58:31;98341.94;;;25.46;100.00
34482;BME280;20720;48.886;9.388;2022-08-25T07:01:04;98343.28;;;26.08;100.00
34482;BME280;20720;48.886;9.388;2022-08-25T07:03:29;98364.25;;;26.25;100.00
34482;BME280;20720;48.886;9.388;2022-08-25T07:05:55;98359.06;;;26.28;100.00
34482;BME280;20720;48.886;9.388;2022-08-25T07:08:20;98367.41;;;26.40;100.00
34482;BME280;20720;48.886;9.388;2022-08-25T07:10:46;98369.53;;;26.16;100.00
34482;BME280;20720;48.886;9.388;2022-08-25T07:13:11;98373.50;;;26.59;100.00
34482;BME280;20720;48.886;9.388;2022-08-25T07:15:37;98373.81;;;26.58;100.00
34482;BME280;20720;48.886;9.388;2022-08-25T07:18:03;98370.53;;;26.20;100.00
34482;BME280;20720;48.886;9.388;2022-08-25T07:20:28;98371.78;;;26.90;100.00
34482;BME280;20720;48.886;9.388;2022-08-25T07:22:55;98369.31;;;26.13;100.00
34482;BME280;20720;48.886;9.388;2022-08-25T07:25:20;98370.31;;;26.84;100.00
34482;BME280;20720;48.886;9.388;2022-08-25T07:27:46;98375.69;;;26.84;100.00
34482;BME280;20720;48.886;9.388;2022-08-25T07:30:11;98373.00;;;26.57;100.00
34482;BME280;20720;48.886;9.388;2022-08-25T07:32:36;98381.75;;;27.04;100.00
34482;BME280;20720;48.886;9.388;2022-08-25T07:35:01;98381.94;;;27.65;95.33
34482;BME280;20720;48.886;9.388;2022-08-25T07:37:43;98380.00;;;26.45;100.00
34482;BME280;20720;48.886;9.388;2022-08-25T07:40:19;98376.03;;;26.69;100.00
34482;BME280;20720;48.886;9.388;2022-08-25T07:42:47;98380.00;;;27.65;97.73
34482;BME280;20720;48.886;9.388;2022-08-25T07:45:13;98373.34;;;28.24;90.10
34482;BME280;20720;48.886;9.388;2022-08-25T07:47:38;98379.09;;;27.70;95.08
34482;BME280;20720;48.886;9.388;2022-08-25T07:50:07;98375.88;;;28.12;93.25
34482;BME280;20720;48.886;9.388;2022-08-25T07:52:33;98378.97;;;29.10;85.94
34482;BME280;20720;48.886;9.388;2022-08-25T07:54:59;98382.50;;;28.45;86.20
34482;BME280;20720;48.886;9.388;2022-08-25T07:57:24;98384.41;;;29.61;80.63
34482;BME280;20720;48.886;9.388;2022-08-25T07:59:51;98383.84;;;27.42;93.92
34482;BME280;20720;48.886;9.388;2022-08-25T08:02:16;98378.44;;;28.17;91.47
34482;BME280;20720;48.886;9.388;2022-08-25T08:04:41;98383.78;;;29.30;82.73
34482;BME280;20720;48.886;9.388;2022-08-25T08:07:07;98384.69;;;29.85;78.28
34482;BME280;20720;48.886;9.388;2022-08-25T08:09:32;98389.06;;;30.24;76.25
34482;BME280;20720;48.886;9.388;2022-08-25T08:11:57;98388.88;;;29.74;78.45
34482;BME280;20720;48.886;9.388;2022-08-25T08:14:22;98391.97;;;30.02;77.06
34482;BME280;20720;48.886;9.388;2022-08-25T08:16:47;98387.25;;;29.90;76.46
34482;BME280;20720;48.886;9.388;2022-08-25T08:19:13;98399.31;;;30.47;74.36
34482;BME280;20720;48.886;9.388;2022-08-25T08:21:39;98396.34;;;30.40;74.18
34482;BME280;20720;48.886;9.388;2022-08-25T08:24:04;98392.72;;;29.73;76.18
34482;BME280;20720;48.886;9.388;2022-08-25T08:26:29;98384.34;;;30.79;73.96
34482;BME280;20720;48.886;9.388;2022-08-25T08:28:55;98388.94;;;31.08;71.00
34482;BME280;20720;48.886;9.388;2022-08-25T08:31:21;98381.84;;;29.90;76.56
34482;BME280;20720;48.886;9.388;2022-08-25T08:33:47;98389.03;;;29.26;80.52
34482;BME280;20720;48.886;9.388;2022-08-25T08:36:13;98380.78;;;30.58;74.13
34482;BME280;20720;48.886;9.388;2022-08-25T08:38:39;98376.53;;;30.98;71.84
34482;BME280;20720;48.886;9.388;2022-08-25T08:44:20;98379.13;;;29.82;80.13
34482;BME280;20720;48.886;9.388;2022-08-25T08:52:18;98373.31;;;31.05;68.84
34482;BME280;20720;48.886;9.388;2022-08-25T08:54:47;98364.56;;;31.40;65.98
34482;BME280;20720;48.886;9.388;2022-08-25T08:57:15;98367.97;;;32.15;64.45
34482;BME280;20720;48.886;9.388;2022-08-25T08:59:46;98362.41;;;32.35;62.65
34482;BME280;20720;48.886;9.388;2022-08-25T09:02:24;98360.63;;;31.50;66.06
34482;BME280;20720;48.886;9.388;2022-08-25T09:04:55;98357.41;;;30.95;67.47
34482;BME280;20720;48.886;9.388;2022-08-25T09:07:24;98361.19;;;32.21;65.07
34482;BME280;20720;48.886;9.388;2022-08-25T09:09:49;98359.94;;;32.30;63.00
34482;BME280;20720;48.886;9.388;2022-08-25T09:20:07;98351.19;;;32.25;62.56
34482;BME280;20720;48.886;9.388;2022-08-25T09:28:00;98343.91;;;32.89;59.80
34482;BME280;20720;48.886;9.388;2022-08-25T09:30:31;98340.66;;;32.60;59.59
34482;BME280;20720;48.886;9.388;2022-08-25T09:32:58;98348.16;;;32.51;60.33
34482;BME280;20720;48.886;9.388;2022-08-25T09:35:29;98340.28;;;32.85;59.70
34482;BME280;20720;48.886;9.388;2022-08-25T09:37:59;98335.06;;;31.51;65.33
34482;BME280;20720;48.886;9.388;2022-08-25T09:40:25;98337.50;;;33.37;58.09
34482;BME280;20720;48.886;9.388;2022-08-25T09:42:51;98330.66;;;32.64;59.89
34482;BME280;20720;48.886;9.388;2022-08-25T09:48:01;98322.16;;;32.65;56.91
34482;BME280;20720;48.886;9.388;2022-08-25T09:50:29;98331.81;;;32.26;59.81
34482;BME280;20720;48.886;9.388;2022-08-25T09:52:56;98332.25;;;31.92;60.82
34482;BME280;20720;48.886;9.388;2022-08-25T09:55:34;98327.06;;;32.48;58.70
34482;BME280;20720;48.886;9.388;2022-08-25T09:58:00;98322.25;;;33.48;55.51
34482;BME280;20720;48.886;9.388;2022-08-25T10:00:37;98316.22;;;34.64;50.63
34482;BME280;20720;48.886;9.388;2022-08-25T10:03:06;98316.28;;;34.67;51.41
34482;BME280;20720;48.886;9.388;2022-08-25T10:05:33;98311.63;;;32.52;56.65
34482;BME280;20720;48.886;9.388;2022-08-25T10:08:00;98308.75;;;34.30;52.76
34482;BME280;20720;48.886;9.388;2022-08-25T10:10:28;98305.59;;;34.28;52.56
34482;BME280;20720;48.886;9.388;2022-08-25T10:12:54;98307.88;;;34.57;50.82
34482;BME280;20720;48.886;9.388;2022-08-25T10:17:50;98307.16;;;34.60;49.23
34482;BME280;20720;48.886;9.388;2022-08-25T10:20:20;98304.59;;;32.14;54.95
34482;BME280;20720;48.886;9.388;2022-08-25T10:22:46;98300.25;;;34.66;50.22
34482;BME280;20720;48.886;9.388;2022-08-25T10:25:13;98296.13;;;34.91;50.15
34482;BME280;20720;48.886;9.388;2022-08-25T10:27:48;98296.53;;;34.74;50.07
34482;BME280;20720;48.886;9.388;2022-08-25T10:30:27;98288.59;;;35.64;46.92
34482;BME280;20720;48.886;9.388;2022-08-25T10:43:11;98264.97;;;30.71;60.39
34482;BME280;20720;48.886;9.388;2022-08-25T10:45:46;98259.81;;;32.12;57.13
34482;BME280;20720;48.886;9.388;2022-08-25T10:48:17;98262.78;;;33.97;52.56
34482;BME280;20720;48.886;9.388;2022-08-25T10:53:39;98260.25;;;33.45;55.15
34482;BME280;20720;48.886;9.388;2022-08-25T11:01:28;98257.63;;;33.95;51.65
34482;BME280;20720;48.886;9.388;2022-08-25T11:04:03;98261.97;;;33.65;51.33
34482;BME280;20720;48.886;9.388;2022-08-25T11:06:45;98256.81;;;34.42;51.05
34482;BME280;20720;48.886;9.388;2022-08-25T11:09:13;98245.81;;;37.46;43.58
34482;BME280;20720;48.886;9.388;2022-08-25T11:11:48;98248.56;;;36.80;41.87
34482;BME280;20720;48.886;9.388;2022-08-25T11:14:20;98251.84;;;34.63;46.99
34482;BME280;20720;48.886;9.388;2022-08-25T11:16:58;98238.69;;;35.26;43.86
34482;BME280;20720;48.886;9.388;2022-08-25T11:19:34;98237.50;;;33.84;46.69
34482;BME280;20720;48.886;9.388;2022-08-25T11:24:47;98223.84;;;34.15;47.29
34482;BME280;20720;48.886;9.388;2022-08-25T11:27:18;98222.75;;;33.11;49.77
34482;BME280;20720;48.886;9.388;2022-08-25T11:29:48;98229.88;;;36.30;43.20
34482;BME280;20720;48.886;9.388;2022-08-25T11:32:17;98222.81;;;36.85;41.84
34482;BME280;20720;48.886;9.388;2022-08-25T11:34:43;98216.78;;;37.05;41.76
34482;BME280;20720;48.886;9.388;2022-08-25T11:37:19;98217.41;;;37.28;39.95
34482;BME280;20720;48.886;9.388;2022-08-25T11:42:38;98214.72;;;34.08;47.78
34482;BME280;20720;48.886;9.388;2022-08-25T11:47:42;98215.13;;;33.32;50.19
34482;BME280;20720;48.886;9.388;2022-08-25T11:50:27;98205.75;;;37.79;41.54
34482;BME280;20720;48.886;9.388;2022-08-25T11:52:53;98205.66;;;37.71;40.11
34482;BME280;20720;48.886;9.388;2022-08-25T11:57:46;98220.53;;;37.70;38.23
34482;BME280;20720;48.886;9.388;2022-08-25T12:02:56;98208.50;;;37.79;37.08
34482;BME280;20720;48.886;9.388;2022-08-25T12:13:24;98194.75;;;35.60;41.48
34482;BME280;20720;48.886;9.388;2022-08-25T12:23:26;98193.13;;;36.90;39.88
34482;BME280;20720;48.886;9.388;2022-08-25T12:25:52;98187.13;;;36.81;39.67
34482;BME280;20720;48.886;9.388;2022-08-25T12:29:06;98191.78;;;35.91;40.58
34482;BME280;20720;48.886;9.388;2022-08-25T12:31:06;98185.91;;;36.78;39.81
34482;BME280;20720;48.886;9.388;2022-08-25T12:33:43;98177.25;;;37.46;38.50
34482;BME280;20720;48.886;9.388;2022-08-25T12:36:14;98187.03;;;36.41;40.33
34482;BME280;20720;48.886;9.388;2022-08-25T12:38:49;98181.22;;;36.46;40.86
34482;BME280;20720;48.886;9.388;2022-08-25T12:41:21;98182.00;;;37.13;39.17
34482;BME280;20720;48.886;9.388;2022-08-25T12:43:47;98183.69;;;37.64;38.70
34482;BME280;20720;48.886;9.388;2022-08-25T12:51:47;98181.06;;;38.40;36.80
34482;BME280;20720;48.886;9.388;2022-08-25T12:56:45;98180.94;;;39.22;34.00
34482;BME280;20720;48.886;9.388;2022-08-25T12:59:16;98178.13;;;38.94;34.12
34482;BME280;20720;48.886;9.388;2022-08-25T13:12:12;98175.28;;;37.94;35.90
34482;BME280;20720;48.886;9.388;2022-08-25T13:14:40;98167.66;;;37.73;36.54
34482;BME280;20720;48.886;9.388;2022-08-25T13:17:06;98158.59;;;39.52;33.30
34482;BME280;20720;48.886;9.388;2022-08-25T13:19:32;98161.38;;;36.89;36.91
34482;BME280;20720;48.886;9.388;2022-08-25T13:21:58;98162.38;;;38.74;34.56
34482;BME280;20720;48.886;9.388;2022-08-25T13:26:51;98161.69;;;39.15;34.18
34482;BME280;20720;48.886;9.388;2022-08-25T13:29:19;98160.09;;;39.11;32.82
34482;BME280;20720;48.886;9.388;2022-08-25T13:31:52;98154.81;;;38.56;34.00
34482;BME280;20720;48.886;9.388;2022-08-25T13:34:19;98150.31;;;39.73;32.65
34482;BME280;20720;48.886;9.388;2022-08-25T13:36:45;98135.00;;;39.44;32.47
34482;BME280;20720;48.886;9.388;2022-08-25T13:39:29;98136.47;;;40.15;31.50
34482;BME280;20720;48.886;9.388;2022-08-25T13:41:57;98133.56;;;35.68;36.86
34482;BME280;20720;48.886;9.388;2022-08-25T13:44:23;98139.44;;;38.34;34.28
34482;BME280;20720;48.886;9.388;2022-08-25T13:47:31;98133.25;;;38.62;34.46
34482;BME280;20720;48.886;9.388;2022-08-25T13:49:45;98125.03;;;41.07;31.07
34482;BME280;20720;48.886;9.388;2022-08-25T13:52:24;98128.09;;;38.46;33.46
34482;BME280;20720;48.886;9.388;2022-08-25T13:54:49;98123.31;;;38.33;33.54
34482;BME280;20720;48.886;9.388;2022-08-25T13:57:17;98118.31;;;35.93;38.24
34482;BME280;20720;48.886;9.388;2022-08-25T13:59:46;98120.34;;;38.77;34.37
34482;BME280;20720;48.886;9.388;2022-08-25T14:02:13;98106.75;;;34.87;40.11
34482;BME280;20720;48.886;9.388;2022-08-25T14:07:25;98112.09;;;33.22;44.13
34482;BME280;20720;48.886;9.388;2022-08-25T14:09:59;98114.00;;;32.47;46.06
34482;BME280;20720;48.886;9.388;2022-08-25T14:12:46;98115.75;;;32.83;46.41
34482;BME280;20720;48.886;9.388;2022-08-25T14:17:35;98111.44;;;33.25;46.08
34482;BME280;20720;48.886;9.388;2022-08-25T14:20:02;98117.56;;;33.38;44.86
34482;BME280;20720;48.886;9.388;2022-08-25T14:22:27;98116.19;;;36.76;39.20
34482;BME280;20720;48.886;9.388;2022-08-25T14:24:53;98116.78;;;38.66;35.67
34482;BME280;20720;48.886;9.388;2022-08-25T14:27:18;98103.28;;;37.13;37.17
34482;BME280;20720;48.886;9.388;2022-08-25T14:29:44;98105.34;;;35.64;38.67
34482;BME280;20720;48.886;9.388;2022-08-25T14:32:09;98105.88;;;34.22;41.13
34482;BME280;20720;48.886;9.388;2022-08-25T14:34:34;98108.31;;;37.51;37.04
34482;BME280;20720;48.886;9.388;2022-08-25T14:37:01;98100.31;;;33.99;42.83
34482;BME280;20720;48.886;9.388;2022-08-25T14:39:26;98095.16;;;34.71;42.37